createdAt,value
2018-12-21T00:01:55.364Z,86.73
2018-12-21T00:04:24.102Z,86.73
2018-12-21T00:06:52.873Z,87.03
2018-12-21T00:09:21.728Z,86.79
2018-12-21T00:11:50.647Z,86.73
2018-12-21T00:14:19.374Z,86.16
2018-12-21T00:16:48.077Z,85.64
2018-12-21T00:19:16.801Z,85.97
2018-12-21T00:21:45.542Z,86.05
2018-12-21T00:24:14.280Z,85.62
2018-12-21T00:26:42.992Z,85.20
2018-12-21T00:29:11.721Z,85.44
2018-12-21T00:31:45.670Z,85.07
2018-12-21T00:34:19.443Z,85.28
2018-12-21T00:36:53.251Z,84.98
2018-12-21T00:39:27.123Z,84.59
2018-12-21T00:41:55.495Z,84.74
2018-12-21T00:44:30.622Z,84.86
2018-12-21T00:47:02.004Z,84.44
2018-12-21T00:49:30.947Z,84.39
2018-12-21T00:51:59.740Z,84.20
2018-12-21T00:54:28.518Z,84.20
2018-12-21T00:56:57.251Z,84.47
2018-12-21T00:59:26.512Z,84.46
2018-12-21T01:01:55.279Z,84.89
2018-12-21T01:04:24.051Z,84.48
2018-12-21T01:06:52.842Z,83.99
2018-12-21T01:09:21.803Z,83.80
2018-12-21T01:11:52.321Z,84.33
2018-12-21T01:14:21.018Z,84.34
2018-12-21T01:16:49.785Z,85.21
2018-12-21T01:19:19.439Z,84.39
2018-12-21T01:21:48.204Z,83.71
2018-12-21T01:24:16.956Z,84.11
2018-12-21T01:26:45.652Z,84.71
2018-12-21T01:29:14.450Z,85.07
2018-12-21T01:31:43.615Z,84.72
2018-12-21T01:34:12.371Z,84.43
2018-12-21T01:36:41.937Z,84.18
2018-12-21T01:39:10.736Z,84.18
2018-12-21T01:41:39.486Z,83.69
2018-12-21T01:44:08.246Z,84.54
2018-12-21T01:46:37.056Z,84.03
2018-12-21T01:49:05.752Z,83.53
2018-12-21T01:51:34.483Z,83.14
2018-12-21T01:54:03.833Z,83.01
2018-12-21T01:56:32.574Z,83.44
2018-12-21T01:59:01.318Z,83.21
2018-12-21T02:01:30.048Z,83.44
2018-12-21T02:03:58.753Z,84.21
2018-12-21T02:06:27.555Z,84.77
2018-12-21T02:08:56.277Z,84.23
2018-12-21T02:11:25.032Z,83.38
2018-12-21T02:13:53.835Z,83.10
2018-12-21T02:16:22.576Z,83.30
2018-12-21T02:18:51.271Z,83.56
2018-12-21T02:21:20.007Z,83.26
2018-12-21T02:23:48.741Z,82.61
2018-12-21T02:26:17.560Z,83.11
2018-12-21T02:28:46.384Z,82.76
2018-12-21T02:31:15.120Z,82.99
2018-12-21T02:33:43.823Z,82.76
2018-12-21T02:36:12.533Z,82.51
2018-12-21T02:38:41.248Z,83.08
2018-12-21T02:41:10.110Z,82.26
2018-12-21T02:43:38.836Z,82.53
2018-12-21T02:46:07.553Z,82.56
2018-12-21T02:48:36.310Z,82.48
2018-12-21T02:51:05.452Z,82.23
2018-12-21T02:53:34.107Z,82.51
2018-12-21T02:56:02.818Z,82.52
2018-12-21T02:58:31.523Z,82.50
2018-12-21T03:01:00.295Z,82.59
2018-12-21T03:03:28.988Z,82.24
2018-12-21T03:05:57.675Z,83.68
2018-12-21T03:08:26.433Z,83.27
2018-12-21T03:10:55.204Z,83.04
2018-12-21T03:13:23.937Z,83.18
2018-12-21T03:15:52.663Z,82.71
2018-12-21T03:18:21.357Z,82.93
2018-12-21T03:20:50.158Z,83.55
2018-12-21T03:23:18.998Z,83.96
2018-12-21T03:25:47.689Z,83.82
2018-12-21T03:28:16.423Z,84.08
2018-12-21T03:30:45.190Z,83.74
2018-12-21T03:33:14.179Z,84.20
2018-12-21T03:35:43.019Z,83.96
2018-12-21T03:38:11.826Z,83.99
2018-12-21T03:40:40.641Z,84.95
2018-12-21T03:43:09.392Z,85.25
2018-12-21T03:45:38.179Z,85.45
2018-12-21T03:48:06.955Z,85.15
2018-12-21T03:50:35.711Z,85.19
2018-12-21T03:53:04.544Z,85.80
2018-12-21T03:55:33.254Z,85.97
2018-12-21T03:58:01.984Z,85.98
2018-12-21T04:00:30.787Z,85.81
2018-12-21T04:02:59.480Z,85.86
2018-12-21T04:05:28.250Z,86.09
2018-12-21T04:07:57.009Z,85.72
2018-12-21T04:10:25.743Z,86.27
2018-12-21T04:12:54.462Z,85.35
2018-12-21T04:15:23.177Z,85.78
2018-12-21T04:17:51.953Z,86.05
2018-12-21T04:20:20.839Z,86.74
2018-12-21T04:22:49.793Z,85.97
2018-12-21T04:25:18.530Z,85.84
2018-12-21T04:27:47.246Z,85.62
2018-12-21T04:30:15.959Z,85.57
2018-12-21T04:32:44.637Z,86.35
2018-12-21T04:35:13.700Z,85.50
2018-12-21T04:37:42.693Z,85.56
2018-12-21T04:40:11.608Z,84.85
2018-12-21T04:42:40.391Z,84.69
2018-12-21T04:45:09.678Z,85.76
2018-12-21T04:47:38.425Z,85.47
2018-12-21T04:50:09.196Z,86.03
2018-12-21T04:52:43.245Z,85.32
2018-12-21T04:55:08.736Z,86.13
2018-12-21T04:57:37.490Z,85.80
2018-12-21T05:00:10.771Z,86.10
2018-12-21T05:02:39.937Z,85.89
2018-12-21T05:05:08.659Z,85.60
2018-12-21T05:07:37.897Z,85.15
2018-12-21T05:10:07.572Z,85.03
2018-12-21T05:12:36.309Z,85.02
2018-12-21T05:15:06.071Z,84.99
2018-12-21T05:17:34.832Z,84.23
2018-12-21T05:20:03.629Z,84.16
2018-12-21T05:22:32.386Z,84.15
2018-12-21T05:25:01.140Z,83.73
2018-12-21T05:27:29.842Z,84.13
2018-12-21T05:29:58.569Z,83.50
2018-12-21T05:32:27.295Z,83.81
2018-12-21T05:34:55.987Z,83.22
2018-12-21T05:37:24.699Z,83.06
2018-12-21T05:39:53.370Z,82.96
2018-12-21T05:42:22.127Z,83.48
2018-12-21T05:44:50.807Z,83.27
2018-12-21T05:47:19.516Z,82.84
2018-12-21T05:49:48.262Z,82.63
2018-12-21T05:52:16.950Z,83.28
2018-12-21T05:54:45.694Z,83.04
2018-12-21T05:57:14.499Z,83.32
2018-12-21T05:59:43.376Z,83.56
2018-12-21T06:02:12.097Z,82.84
2018-12-21T06:04:40.885Z,83.62
2018-12-21T06:07:09.548Z,83.71
2018-12-21T06:09:38.349Z,83.46
2018-12-21T06:12:07.094Z,83.32
2018-12-21T06:14:35.835Z,83.57
2018-12-21T06:17:04.600Z,83.76
2018-12-21T06:19:33.347Z,83.84
2018-12-21T06:22:02.770Z,83.47
2018-12-21T06:24:32.002Z,83.66
2018-12-21T06:27:00.731Z,83.00
2018-12-21T06:29:29.440Z,82.81
2018-12-21T06:31:58.184Z,83.45
2018-12-21T06:34:26.959Z,83.07
2018-12-21T06:36:55.732Z,83.62
2018-12-21T06:39:24.537Z,82.83
2018-12-21T06:41:53.255Z,82.38
2018-12-21T06:44:21.926Z,82.25
2018-12-21T06:46:50.662Z,82.38
2018-12-21T06:49:19.839Z,82.10
2018-12-21T06:51:48.534Z,81.26
2018-12-21T06:54:17.262Z,81.31
2018-12-21T06:56:45.968Z,81.61
2018-12-21T06:59:14.678Z,81.86
2018-12-21T07:01:43.459Z,81.79
2018-12-21T07:04:12.162Z,82.08
2018-12-21T07:06:40.916Z,82.13
2018-12-21T07:09:09.837Z,82.23
2018-12-21T07:11:39.636Z,82.37
2018-12-21T07:14:08.355Z,82.36
2018-12-21T07:16:37.285Z,82.28
2018-12-21T07:19:06.091Z,82.28
2018-12-21T07:21:34.910Z,82.30
2018-12-21T07:24:03.703Z,82.95
2018-12-21T07:26:32.484Z,82.69
2018-12-21T07:29:01.162Z,81.58
2018-12-21T07:31:29.879Z,81.22
2018-12-21T07:33:58.594Z,81.30
2018-12-21T07:36:27.283Z,80.65
2018-12-21T07:38:56.447Z,81.19
2018-12-21T07:41:25.228Z,80.90
2018-12-21T07:43:53.932Z,80.34
2018-12-21T07:46:22.775Z,80.67
2018-12-21T07:48:51.594Z,80.96
2018-12-21T07:51:20.349Z,81.63
2018-12-21T07:53:49.107Z,81.49
2018-12-21T07:56:17.821Z,82.77
2018-12-21T07:58:46.579Z,82.64
2018-12-21T08:01:15.788Z,82.83
2018-12-21T08:03:44.598Z,82.91
2018-12-21T08:06:13.481Z,82.43
2018-12-21T08:08:42.253Z,82.01
2018-12-21T08:11:10.934Z,81.66
2018-12-21T08:13:39.698Z,81.29
2018-12-21T08:16:08.428Z,81.38
2018-12-21T08:18:37.244Z,81.76
2018-12-21T08:21:06.190Z,81.29
2018-12-21T08:23:35.050Z,81.29
2018-12-21T08:26:03.885Z,80.43
2018-12-21T08:28:32.860Z,80.71
2018-12-21T08:31:01.648Z,80.57
2018-12-21T08:33:30.343Z,79.60
2018-12-21T08:35:59.377Z,79.28
2018-12-21T08:38:28.117Z,79.14
2018-12-21T08:40:58.340Z,79.86
2018-12-21T08:43:27.003Z,79.77
2018-12-21T08:45:55.797Z,78.27
2018-12-21T08:48:24.430Z,78.20
2018-12-21T08:50:53.162Z,77.72
2018-12-21T08:53:21.896Z,78.21
2018-12-21T08:55:50.610Z,78.11
2018-12-21T08:58:19.325Z,77.95
2018-12-21T09:00:48.066Z,77.52
2018-12-21T09:03:16.809Z,77.91
2018-12-21T09:08:24.821Z,78.41
2018-12-21T09:10:54.729Z,77.58
2018-12-21T09:13:23.450Z,77.75
2018-12-21T09:15:52.235Z,77.08
2018-12-21T09:18:21.018Z,77.81
2018-12-21T09:20:50.083Z,77.69
2018-12-21T09:23:18.791Z,77.26
2018-12-21T09:25:47.562Z,77.92
2018-12-21T09:28:16.404Z,77.59
2018-12-21T09:30:45.121Z,77.05
2018-12-21T09:33:13.937Z,77.16
2018-12-21T09:35:43.170Z,76.55
2018-12-21T09:38:11.849Z,76.04
2018-12-21T09:40:40.509Z,75.92
2018-12-21T09:43:09.309Z,75.76
2018-12-21T09:45:38.024Z,75.61
2018-12-21T09:48:06.782Z,75.20
2018-12-21T09:50:35.569Z,74.63
2018-12-21T09:53:04.517Z,74.07
2018-12-21T09:55:33.307Z,73.37
2018-12-21T09:58:02.073Z,72.65
2018-12-21T10:00:30.811Z,72.85
2018-12-21T10:03:00.156Z,73.84
2018-12-21T10:05:28.986Z,74.16
2018-12-21T10:07:57.818Z,74.47
2018-12-21T10:10:26.611Z,74.68
2018-12-21T10:12:55.328Z,73.93
2018-12-21T10:15:24.058Z,74.41
2018-12-21T10:17:52.789Z,74.19
2018-12-21T10:20:21.558Z,74.66
2018-12-21T10:22:50.537Z,73.83
2018-12-21T10:25:19.312Z,73.87
2018-12-21T10:27:48.112Z,74.49
2018-12-21T10:30:16.893Z,72.97
2018-12-21T10:32:45.648Z,73.48
2018-12-21T10:35:14.421Z,72.85
2018-12-21T10:37:43.132Z,71.64
2018-12-21T10:40:11.852Z,72.12
2018-12-21T10:42:40.610Z,72.36
2018-12-21T10:45:09.384Z,72.39
2018-12-21T10:47:38.121Z,73.24
2018-12-21T10:50:10.122Z,73.04
2018-12-21T10:52:39.040Z,72.77
2018-12-21T10:55:08.377Z,72.52
2018-12-21T10:57:37.167Z,72.62
2018-12-21T11:00:11.828Z,71.91
2018-12-21T11:02:40.512Z,72.08
2018-12-21T11:05:09.309Z,72.39
2018-12-21T11:07:38.091Z,71.66
2018-12-21T11:10:10.085Z,71.85
2018-12-21T11:12:38.869Z,71.96
2018-12-21T11:15:08.350Z,71.12
2018-12-21T11:17:37.206Z,70.48
2018-12-21T11:20:07.976Z,70.38
2018-12-21T11:22:36.728Z,70.25
2018-12-21T11:25:07.921Z,70.32
2018-12-21T11:27:36.751Z,70.37
2018-12-21T11:30:13.602Z,70.32
2018-12-21T11:32:42.364Z,69.61
2018-12-21T11:35:11.150Z,68.74
2018-12-21T11:37:41.997Z,69.25
2018-12-21T11:40:10.769Z,68.42
2018-12-21T11:42:39.486Z,68.68
2018-12-21T11:45:09.704Z,68.99
2018-12-21T11:47:38.492Z,68.75
2018-12-21T11:50:10.160Z,68.81
2018-12-21T11:52:43.513Z,69.18
2018-12-21T11:55:13.177Z,68.75
2018-12-21T11:57:41.879Z,68.83
2018-12-21T12:00:11.846Z,68.72
2018-12-21T12:02:41.142Z,69.11
2018-12-21T12:05:09.891Z,68.64
2018-12-21T12:07:38.644Z,68.24
2018-12-21T12:10:08.573Z,69.41
2018-12-21T12:12:39.334Z,68.56
2018-12-21T12:15:08.827Z,68.59
2018-12-21T12:17:37.595Z,67.96
2018-12-21T12:20:06.965Z,68.46
2018-12-21T12:22:35.824Z,68.33
2018-12-21T12:25:05.575Z,69.32
2018-12-21T12:27:34.279Z,69.05
2018-12-21T12:30:11.539Z,69.66
2018-12-21T12:32:40.304Z,70.06
2018-12-21T12:35:09.220Z,70.78
2018-12-21T12:37:38.024Z,71.54
2018-12-21T12:40:09.118Z,71.88
2018-12-21T12:42:38.380Z,71.84
2018-12-21T12:45:08.720Z,71.67
2018-12-21T12:47:37.535Z,71.84
2018-12-21T12:50:07.413Z,72.92
2018-12-21T12:52:36.201Z,73.09
2018-12-21T12:55:06.377Z,72.92
2018-12-21T12:57:35.163Z,73.37
2018-12-21T13:00:12.724Z,73.77
2018-12-21T13:02:41.465Z,74.20
2018-12-21T13:05:10.322Z,73.66
2018-12-21T13:07:39.315Z,73.66
2018-12-21T13:10:10.440Z,74.41
2018-12-21T13:12:39.252Z,75.09
2018-12-21T13:15:10.764Z,75.50
2018-12-21T13:17:39.846Z,75.24
2018-12-21T13:20:10.376Z,74.76
2018-12-21T13:22:39.130Z,74.92
2018-12-21T13:25:11.645Z,74.93
2018-12-21T13:27:39.757Z,75.53
2018-12-21T13:30:12.063Z,75.46
2018-12-21T13:32:41.168Z,76.41
2018-12-21T13:35:09.958Z,76.41
2018-12-21T13:37:38.758Z,76.34
2018-12-21T13:40:10.960Z,76.07
2018-12-21T13:42:39.742Z,76.39
2018-12-21T13:45:10.440Z,75.29
2018-12-21T13:47:39.129Z,75.84
2018-12-21T13:50:12.346Z,75.58
2018-12-21T13:52:41.174Z,74.83
2018-12-21T13:55:10.129Z,75.96
2018-12-21T13:57:38.882Z,75.38
2018-12-21T14:00:11.971Z,75.21
2018-12-21T14:02:40.679Z,75.49
2018-12-21T14:05:09.541Z,74.87
2018-12-21T14:07:38.264Z,75.41
2018-12-21T14:10:10.296Z,75.15
2018-12-21T14:12:39.047Z,75.01
2018-12-21T14:15:09.302Z,75.30
2018-12-21T14:17:37.992Z,75.71
2018-12-21T14:20:10.046Z,76.03
2018-12-21T14:22:38.944Z,76.35
2018-12-21T14:25:08.640Z,76.95
2018-12-21T14:27:37.404Z,76.31
2018-12-21T14:30:13.835Z,76.61
2018-12-21T14:32:42.584Z,76.78
2018-12-21T14:35:11.595Z,76.77
2018-12-21T14:37:40.453Z,76.75
2018-12-21T14:40:09.273Z,77.48
2018-12-21T14:42:38.233Z,77.62
2018-12-21T14:45:07.790Z,77.88
2018-12-21T14:47:36.518Z,77.85
2018-12-21T14:50:19.542Z,78.35
2018-12-21T14:52:48.290Z,78.06
2018-12-21T14:55:17.004Z,78.42
2018-12-21T14:57:45.756Z,77.96
2018-12-21T15:00:15.360Z,78.45
2018-12-21T15:02:44.354Z,78.92
2018-12-21T15:05:19.460Z,78.82
2018-12-21T15:08:06.495Z,79.42
2018-12-21T15:10:52.389Z,79.45
2018-12-21T15:13:21.152Z,79.51
2018-12-21T15:15:49.959Z,79.20
2018-12-21T15:18:18.700Z,78.50
2018-12-21T15:20:47.354Z,78.37
2018-12-21T15:23:16.132Z,78.36
2018-12-21T15:25:46.154Z,78.78
2018-12-21T15:28:15.452Z,78.62
2018-12-21T15:30:44.183Z,78.45
2018-12-21T15:33:12.966Z,78.49
2018-12-21T15:35:41.843Z,78.84
2018-12-21T15:38:10.614Z,77.98
2018-12-21T15:40:39.335Z,78.45
2018-12-21T15:43:08.066Z,78.54
2018-12-21T15:45:36.761Z,78.20
2018-12-21T15:48:05.538Z,79.03
2018-12-21T15:50:34.269Z,79.41
2018-12-21T15:53:03.147Z,79.36
2018-12-21T15:55:31.918Z,79.25
2018-12-21T15:58:00.735Z,79.28
2018-12-21T16:00:29.523Z,78.99
2018-12-21T16:02:59.335Z,78.88
2018-12-21T16:05:28.129Z,78.93
2018-12-21T16:07:56.830Z,78.48
2018-12-21T16:10:25.607Z,79.26
2018-12-21T16:12:54.379Z,79.11
2018-12-21T16:15:23.236Z,79.60
2018-12-21T16:17:52.058Z,79.87
2018-12-21T16:20:20.869Z,79.67
2018-12-21T16:22:49.653Z,80.80
2018-12-21T16:25:18.425Z,80.26
2018-12-21T16:27:47.156Z,80.95
2018-12-21T16:30:16.002Z,80.92
2018-12-21T16:32:44.772Z,81.52
2018-12-21T16:35:13.802Z,81.68
2018-12-21T16:37:42.658Z,81.59
2018-12-21T16:40:12.023Z,81.12
2018-12-21T16:42:40.774Z,81.01
2018-12-21T16:45:11.364Z,81.05
2018-12-21T16:47:40.154Z,81.20
2018-12-21T16:50:12.941Z,80.66
2018-12-21T16:52:41.697Z,80.79
2018-12-21T16:55:10.558Z,80.82
2018-12-21T16:57:39.499Z,80.67
2018-12-21T17:00:13.838Z,80.50
2018-12-21T17:02:42.602Z,80.09
2018-12-21T17:05:11.858Z,80.03
2018-12-21T17:07:40.530Z,80.46
2018-12-21T17:10:18.690Z,80.14
2018-12-21T17:12:47.259Z,80.32
2018-12-21T17:15:16.090Z,80.29
2018-12-21T17:17:44.812Z,80.39
2018-12-21T17:20:13.542Z,80.83
2018-12-21T17:22:42.289Z,80.06
2018-12-21T17:25:13.849Z,80.27
2018-12-21T17:27:42.683Z,80.65
2018-12-21T17:30:12.761Z,80.23
2018-12-21T17:32:41.634Z,80.38
2018-12-21T17:35:11.046Z,80.32
2018-12-21T17:37:40.327Z,79.92
2018-12-21T17:40:10.847Z,80.03
2018-12-21T17:42:39.607Z,80.34
2018-12-21T17:45:10.669Z,80.12
2018-12-21T17:47:39.450Z,79.43
2018-12-21T17:50:10.606Z,79.82
2018-12-21T17:52:39.484Z,80.00
2018-12-21T17:55:09.733Z,80.14
2018-12-21T17:57:38.856Z,80.06
2018-12-21T18:00:17.865Z,80.68
2018-12-21T18:02:50.260Z,80.43
2018-12-21T18:05:19.227Z,80.12
2018-12-21T18:07:47.971Z,79.92
2018-12-21T18:10:16.961Z,79.97
2018-12-21T18:12:45.891Z,80.39
2018-12-21T18:15:14.666Z,80.73
2018-12-21T18:17:43.492Z,80.37
2018-12-21T18:20:13.166Z,79.84
2018-12-21T18:22:42.758Z,80.28
2018-12-21T18:25:17.932Z,79.65
2018-12-21T18:27:50.096Z,80.34
2018-12-21T18:30:23.542Z,80.25
2018-12-21T18:32:52.742Z,80.39
2018-12-21T18:35:22.310Z,80.77
2018-12-21T18:37:56.008Z,80.20
2018-12-21T18:40:24.765Z,80.67
2018-12-21T18:42:53.665Z,80.07
2018-12-21T18:45:23.121Z,80.49
2018-12-21T18:47:51.884Z,80.79
2018-12-21T18:50:20.690Z,80.66
2018-12-21T18:52:49.393Z,80.34
2018-12-21T18:55:18.677Z,80.95
2018-12-21T18:57:47.660Z,80.90
2018-12-21T19:00:17.779Z,81.50
2018-12-21T19:02:46.686Z,81.31
2018-12-21T19:05:16.757Z,81.34
2018-12-21T19:07:45.641Z,81.18
2018-12-21T19:10:14.558Z,81.19
2018-12-21T19:12:43.406Z,81.66
2018-12-21T19:15:12.524Z,81.59
2018-12-21T19:17:41.916Z,81.48
2018-12-21T19:20:12.301Z,81.85
2018-12-21T19:22:41.379Z,81.76
2018-12-21T19:25:11.466Z,81.54
2018-12-21T19:27:40.242Z,82.48
2018-12-21T19:30:12.955Z,81.88
2018-12-21T19:32:42.763Z,81.98
2018-12-21T19:35:13.327Z,82.21
2018-12-21T19:37:42.188Z,82.22
2018-12-21T19:40:12.432Z,81.80
2018-12-21T19:42:41.590Z,82.38
2018-12-21T19:45:12.645Z,82.21
2018-12-21T19:47:41.600Z,82.72
2018-12-21T19:50:11.198Z,82.17
2018-12-21T19:52:39.977Z,82.32
2018-12-21T19:55:33.353Z,83.00
2018-12-21T19:58:02.165Z,83.40
2018-12-21T20:00:30.942Z,83.14
2018-12-21T20:02:59.749Z,83.82
2018-12-21T20:05:28.606Z,83.96
2018-12-21T20:07:57.320Z,83.16
2018-12-21T20:10:26.049Z,83.06
2018-12-21T20:12:54.778Z,83.32
2018-12-21T20:15:23.517Z,82.75
2018-12-21T20:17:52.227Z,82.78
2018-12-21T20:20:21.004Z,83.31
2018-12-21T20:22:50.160Z,82.55
2018-12-21T20:25:19.084Z,82.89
2018-12-21T20:27:48.073Z,82.79
2018-12-21T20:30:19.180Z,83.00
2018-12-21T20:32:47.847Z,82.32
2018-12-21T20:35:16.662Z,82.48
2018-12-21T20:37:45.447Z,81.90
2018-12-21T20:40:15.351Z,82.40
2018-12-21T20:45:18.539Z,82.49
2018-12-21T20:47:47.311Z,82.71
2018-12-21T20:50:16.964Z,82.33
2018-12-21T20:52:45.689Z,82.87
2018-12-21T20:55:14.546Z,82.64
2018-12-21T20:57:45.390Z,82.88
2018-12-21T21:00:16.841Z,82.90
2018-12-21T21:02:45.614Z,82.83
2018-12-21T21:05:14.456Z,83.39
2018-12-21T21:07:43.202Z,82.50
2018-12-21T21:10:13.238Z,83.02
2018-12-21T21:12:42.333Z,82.52
2018-12-21T21:15:12.663Z,83.25
2018-12-21T21:17:41.443Z,82.83
2018-12-21T21:20:12.742Z,82.90
2018-12-21T21:22:41.508Z,82.98
2018-12-21T21:25:10.806Z,82.89
2018-12-21T21:27:39.503Z,82.84
2018-12-21T21:30:15.517Z,83.47
2018-12-21T21:32:44.227Z,82.79
2018-12-21T21:35:13.131Z,82.62
2018-12-21T21:37:42.672Z,82.88
2018-12-21T21:40:19.357Z,82.12
2018-12-21T21:42:57.183Z,82.08
2018-12-21T21:45:19.779Z,82.08
2018-12-21T21:47:48.759Z,82.19
2018-12-21T21:50:17.449Z,81.43
2018-12-21T21:52:46.227Z,81.60
2018-12-21T21:55:14.975Z,81.34
2018-12-21T21:57:43.779Z,82.14
2018-12-21T22:00:15.117Z,81.97
2018-12-21T22:02:43.918Z,82.53
2018-12-21T22:05:12.777Z,83.07
2018-12-21T22:07:41.500Z,83.41
2018-12-21T22:10:11.292Z,83.26
2018-12-21T22:12:39.997Z,83.55
2018-12-21T22:15:10.544Z,83.34
2018-12-21T22:17:39.297Z,83.47
2018-12-21T22:20:10.817Z,84.32
2018-12-21T22:22:39.623Z,83.53
2018-12-21T22:25:08.419Z,83.38
2018-12-21T22:27:37.229Z,83.38
2018-12-21T22:30:11.699Z,83.25
2018-12-21T22:32:40.466Z,83.50
2018-12-21T22:35:09.365Z,83.43
2018-12-21T22:37:38.202Z,83.82
2018-12-21T22:40:08.387Z,83.94
2018-12-21T22:42:37.237Z,82.90
2018-12-21T22:45:07.178Z,83.57
2018-12-21T22:47:36.022Z,83.58
2018-12-21T22:50:05.657Z,83.92
2018-12-21T22:52:34.440Z,83.99
2018-12-21T22:55:03.261Z,84.14
2018-12-21T22:57:32.192Z,83.27
2018-12-21T23:00:00.877Z,83.82
2018-12-21T23:02:30.009Z,83.97
2018-12-21T23:04:58.792Z,84.39
2018-12-21T23:07:27.669Z,84.06
2018-12-21T23:09:56.366Z,84.01
2018-12-21T23:12:25.129Z,83.85
2018-12-21T23:14:53.846Z,84.69
2018-12-21T23:17:22.710Z,84.91
2018-12-21T23:19:51.519Z,85.06
2018-12-21T23:22:20.243Z,84.42
2018-12-21T23:24:49.036Z,84.98
2018-12-21T23:27:17.795Z,84.51
2018-12-21T23:29:46.497Z,84.86
2018-12-21T23:32:15.258Z,85.36
2018-12-21T23:34:44.029Z,85.23
2018-12-21T23:37:12.738Z,85.03
2018-12-21T23:39:41.509Z,85.13
2018-12-21T23:42:10.243Z,86.00
2018-12-21T23:44:38.966Z,86.23
2018-12-21T23:47:07.711Z,86.13
2018-12-21T23:49:36.763Z,86.49
2018-12-21T23:52:05.512Z,86.51
2018-12-21T23:54:34.231Z,86.23
2018-12-21T23:57:03.589Z,85.57
2018-12-21T23:59:32.762Z,85.58
